Aeroporto :
LOGIN :

Iscrizione | Disclaimer

   EN    FR    IT 

 










Sommario :    VFR   VFR Marginale   IFR   IFR Intensivo   IFR Molto Intensivo
Visibilità : 
Base nubi : 
>= 8 km
>= 3000ft
5 / 8 km
1000 / 3000 ft
1500m / 5 km
500 / 1000 ft
800 / 1500m
200 / 500 ft
< 800m
< 200 ft
Simboli :   Temporali  Nebbia  Neve Forte  Precipitazioni Forti  Vento > 20 kt
SIGMETs :   Varie  Temporali  Ghiacco  Turbolenza  Onda orograficha  Ceneri Vulcaniche






- Altitudine del aeroporto : 348 ft
- Codice IATA : STN


EGSS - London Stansted

ULTIMO METAR :
  • 280550Z AUTO 25010KT 9999 NCD 02/01 Q0990

METARs OBSOLETI :
  • 280520Z AUTO 25010KT 9999 BKN011 02/01 Q0990
  • 280450Z AUTO 25008KT 9999 BKN010 BKN029 02/02 Q0989
  • 280420Z AUTO 27009KT 250V310 9999 -RA BKN010 BKN029 03/02 Q0989
  • 280350Z AUTO 26011G22KT 9999 -RA BKN011 OVC016 04/02 Q0988
  • 280320Z AUTO 25008KT 9999 -RA BKN020/// BKN028/// //////TCU 04/03 Q0988

TAF TAF EGSS
Valido dal 28 a 06 ore il 29 a 12 ore UTC


280459Z 2806/2912 26015KT 9999 SCT025
ATIS : +44 1279 669 325



MetMap, La meteo Aeronautica in un colpo d'occhio ! - Copyright ORBIFLY Dicembre 2007 - Disclaimer

ORBIFLY MET'MAP TEAM :

Programmazione e sviluppo : Alexandra Zaïnal
Concezione : Baudouin d'Aumeries
Aiuto per la programmazione : Marc-Olivier Méhu
Supporto tecnico e logistico : Manuel Goepfert
Aiuto per la traduzione : Arnaldo La Scala

Contatto : metmap@orbifly.com




FONTI E CREDITI :

   NOAA